Time;durP1;ratioP1;P1;durP2;ratioP2;P2;SDS_P1;SDS_P2;PMS_P1;PMS_P2;Temp;Humidity;BMP_temperature;BMP_pressure;BME280_temperature;BME280_humidity;BME280_pressure;Samples;Min_cycle;Max_cycle;Signal;HPM_P1;HPM_P2
2020/12/28 00:01:05;;;;;;;1.50;0.40;;;6.60;1.00;;;;;;5015022;28;20106;-76
2020/12/28 00:03:30;;;;;;;0.73;0.70;;;6.60;1.00;;;;;;5015068;28;20481;-77
2020/12/28 00:05:56;;;;;;;0.70;0.50;;;6.60;7.10;;;;;;4998229;28;20129;-77
2020/12/28 00:08:21;;;;;;;3.10;0.60;;;6.50;8.20;;;;;;4997067;28;20035;-77
2020/12/28 00:10:47;;;;;;;0.90;0.60;;;6.50;17.80;;;;;;5008598;28;20023;-75
2020/12/28 00:13:13;;;;;;;1.65;0.73;;;6.40;35.40;;;;;;5003014;28;20192;-76
2020/12/28 00:15:38;;;;;;;0.43;0.40;;;6.40;51.60;;;;;;5002095;28;20502;-77
2020/12/28 00:18:04;;;;;;;0.65;0.43;;;6.40;27.10;;;;;;4974474;28;20035;-78
2020/12/28 00:20:31;;;;;;;0.70;0.70;;;6.40;29.90;;;;;;4995141;28;20398;-76
2020/12/28 00:22:57;;;;;;;1.00;0.60;;;6.30;57.60;;;;;;4981436;28;20030;-76
2020/12/28 00:25:24;;;;;;;1.85;0.77;;;6.30;50.90;;;;;;4998663;28;20090;-76
2020/12/28 00:27:50;;;;;;;0.60;0.60;;;6.20;79.90;;;;;;5007197;28;20049;-77
2020/12/28 00:30:16;;;;;;;0.70;0.70;;;6.20;74.50;;;;;;5005599;28;20121;-78
2020/12/28 00:32:42;;;;;;;1.30;0.70;;;6.20;79.30;;;;;;4986742;28;20031;-76
2020/12/28 00:35:08;;;;;;;0.65;0.65;;;6.20;85.80;;;;;;5001879;28;20049;-75
2020/12/28 00:37:34;;;;;;;1.40;0.70;;;6.20;72.90;;;;;;5010446;28;20041;-76
2020/12/28 00:40:01;;;;;;;0.75;0.57;;;6.20;71.80;;;;;;5009235;28;20026;-75
2020/12/28 00:42:29;;;;;;;1.15;1.02;;;6.20;36.50;;;;;;5015661;28;20069;-76
2020/12/28 00:44:54;;;;;;;0.80;0.80;;;6.20;81.20;;;;;;4984628;28;20026;-78
2020/12/28 00:47:20;;;;;;;2.22;0.70;;;6.10;92.80;;;;;;4998913;28;20042;-78
2020/12/28 00:49:45;;;;;;;0.95;0.70;;;6.10;99.90;;;;;;4990562;28;20019;-79
2020/12/28 00:52:11;;;;;;;2.20;0.65;;;6.00;99.90;;;;;;4968185;28;20062;-78
2020/12/28 00:54:36;;;;;;;0.60;0.60;;;5.90;99.90;;;;;;4981162;28;20097;-77
2020/12/28 00:57:02;;;;;;;0.80;0.60;;;5.90;99.90;;;;;;4996399;28;20157;-77
2020/12/28 00:59:28;;;;;;;0.80;0.60;;;5.90;99.90;;;;;;4996994;28;20038;-77
2020/12/28 01:01:55;;;;;;;1.15;0.60;;;5.90;99.90;;;;;;5001959;28;20045;-78
2020/12/28 01:04:21;;;;;;;1.20;1.10;;;5.90;99.90;;;;;;5018087;28;20037;-79
2020/12/28 01:06:46;;;;;;;2.17;1.00;;;5.80;99.90;;;;;;4999613;28;20030;-75
2020/12/28 01:09:12;;;;;;;1.58;0.70;;;5.90;99.90;;;;;;4984222;28;20035;-76
2020/12/28 01:11:38;;;;;;;0.68;0.68;;;5.90;99.90;;;;;;4982982;28;20037;-77
2020/12/28 01:14:03;;;;;;;0.57;0.50;;;6.10;99.90;;;;;;4969293;28;20034;-77
2020/12/28 01:16:29;;;;;;;0.57;0.57;;;6.20;99.90;;;;;;4981452;28;20030;-77
2020/12/28 01:18:54;;;;;;;0.70;0.70;;;6.30;99.90;;;;;;4990114;28;20038;-75
2020/12/28 01:21:23;;;;;;;1.42;0.88;;;6.20;99.90;;;;;;4992702;28;20042;-76
2020/12/28 01:23:52;;;;;;;0.70;0.70;;;6.20;99.90;;;;;;4993611;28;20023;-76
2020/12/28 01:26:18;;;;;;;1.00;0.70;;;6.20;99.90;;;;;;4998740;28;20033;-77
2020/12/28 01:28:44;;;;;;;0.90;0.80;;;6.20;99.90;;;;;;4983398;28;20034;-77
2020/12/28 01:31:10;;;;;;;1.23;0.80;;;6.00;99.90;;;;;;4992405;28;20085;-76
2020/12/28 01:33:36;;;;;;;0.77;0.70;;;6.00;99.90;;;;;;4953406;28;20516;-76
2020/12/28 01:36:02;;;;;;;0.60;0.57;;;5.90;99.90;;;;;;4979336;28;20034;-77
2020/12/28 01:38:27;;;;;;;0.85;0.60;;;5.90;99.90;;;;;;4976501;28;20430;-76
2020/12/28 01:40:53;;;;;;;1.20;0.80;;;5.80;99.90;;;;;;4993236;28;20231;-77
2020/12/28 01:43:18;;;;;;;2.47;0.85;;;5.80;99.90;;;;;;4982278;28;20026;-77
2020/12/28 01:45:44;;;;;;;0.75;0.70;;;5.80;99.90;;;;;;4983521;28;20055;-76
2020/12/28 01:48:13;;;;;;;0.77;0.60;;;5.80;99.90;;;;;;4990525;28;20042;-76
2020/12/28 01:50:39;;;;;;;0.95;0.75;;;5.80;99.90;;;;;;4987782;28;20038;-77
2020/12/28 01:53:04;;;;;;;0.90;0.80;;;5.80;99.90;;;;;;4995775;28;20078;-77
2020/12/28 01:55:31;;;;;;;1.27;0.65;;;5.90;99.90;;;;;;4992461;28;20026;-76
2020/12/28 01:57:57;;;;;;;1.25;0.80;;;5.90;99.90;;;;;;4989262;28;20026;-78
2020/12/28 02:00:22;;;;;;;0.70;0.70;;;6.00;99.90;;;;;;4990016;28;20096;-77
2020/12/28 02:02:51;;;;;;;0.75;0.75;;;6.10;99.90;;;;;;4996381;28;20402;-77
2020/12/28 02:05:17;;;;;;;0.80;0.80;;;6.10;99.90;;;;;;4992368;28;20019;-76
2020/12/28 02:07:44;;;;;;;0.75;0.75;;;6.00;99.90;;;;;;4994940;28;20030;-76
2020/12/28 02:10:10;;;;;;;1.55;0.65;;;5.90;99.90;;;;;;4989688;28;20022;-75
2020/12/28 02:12:36;;;;;;;1.30;0.88;;;5.90;99.90;;;;;;4995424;28;20421;-76
2020/12/28 02:15:03;;;;;;;0.85;0.80;;;5.80;99.90;;;;;;4980817;28;20050;-76
2020/12/28 02:17:29;;;;;;;1.92;0.85;;;5.80;99.90;;;;;;4987320;28;20483;-76
2020/12/28 02:19:55;;;;;;;1.20;1.10;;;5.90;99.90;;;;;;4978496;28;20029;-77
2020/12/28 02:22:20;;;;;;;1.25;0.80;;;5.80;99.90;;;;;;4992154;28;20038;-75
2020/12/28 02:24:46;;;;;;;1.42;0.77;;;5.90;99.90;;;;;;4981794;28;20029;-77
2020/12/28 02:27:11;;;;;;;0.80;0.63;;;5.90;99.90;;;;;;4992641;28;20038;-78
2020/12/28 02:29:37;;;;;;;0.80;0.60;;;6.00;1.00;;;;;;4984670;28;20506;-76
2020/12/28 02:32:02;;;;;;;0.60;0.60;;;6.00;1.00;;;;;;4998832;28;20121;-76
2020/12/28 02:34:28;;;;;;;0.50;0.50;;;6.10;1.00;;;;;;4985594;28;20031;-76
2020/12/28 02:36:54;;;;;;;0.82;0.60;;;6.20;1.00;;;;;;4993726;28;20161;-76
2020/12/28 02:39:20;;;;;;;0.70;0.70;;;6.20;1.00;;;;;;4983925;28;20039;-76
2020/12/28 02:41:45;;;;;;;0.50;0.50;;;6.20;1.00;;;;;;4985896;28;21459;-75
2020/12/28 02:44:11;;;;;;;0.80;0.70;;;6.20;1.00;;;;;;5018011;28;20049;-74
2020/12/28 02:46:36;;;;;;;0.60;0.60;;;6.20;1.00;;;;;;5015765;28;20053;-74
2020/12/28 02:49:02;;;;;;;0.80;0.70;;;6.20;1.00;;;;;;5014314;28;20026;-75
2020/12/28 02:51:27;;;;;;;0.70;0.70;;;6.20;1.00;;;;;;5013412;28;20034;-76
2020/12/28 02:53:53;;;;;;;0.98;0.70;;;6.20;1.00;;;;;;5000240;28;20211;-77
2020/12/28 02:56:19;;;;;;;0.63;0.60;;;6.10;1.00;;;;;;4993753;28;20035;-78
2020/12/28 02:58:44;;;;;;;0.52;0.52;;;6.00;1.00;;;;;;4979628;28;20077;-76
2020/12/28 03:01:13;;;;;;;0.88;0.70;;;5.90;1.00;;;;;;4982415;28;20027;-76
2020/12/28 03:03:38;;;;;;;0.93;0.75;;;5.70;1.00;;;;;;5014390;28;20077;-76
2020/12/28 03:06:04;;;;;;;0.73;0.68;;;5.70;7.60;;;;;;5019553;28;20449;-77
2020/12/28 03:08:29;;;;;;;0.85;0.75;;;5.60;16.90;;;;;;5019424;28;20105;-76
2020/12/28 03:10:55;;;;;;;0.80;0.60;;;5.60;26.50;;;;;;5009366;28;20030;-76
2020/12/28 03:13:20;;;;;;;0.70;0.68;;;5.60;27.20;;;;;;5000563;28;20413;-77
2020/12/28 03:15:46;;;;;;;0.75;0.65;;;5.60;25.70;;;;;;4994358;28;20062;-78
2020/12/28 03:18:11;;;;;;;0.75;0.75;;;5.60;32.80;;;;;;4999238;28;20061;-77
2020/12/28 03:20:37;;;;;;;0.70;0.70;;;5.60;32.30;;;;;;4982082;28;20054;-78
2020/12/28 03:23:03;;;;;;;0.80;0.75;;;5.60;50.00;;;;;;5009454;28;20026;-78
2020/12/28 03:25:28;;;;;;;0.50;0.50;;;5.70;28.10;;;;;;4985073;28;20101;-77
2020/12/28 03:27:54;;;;;;;1.17;0.55;;;5.70;32.60;;;;;;5002302;28;20030;-76
2020/12/28 03:30:20;;;;;;;0.50;0.50;;;5.60;40.80;;;;;;4977544;28;20395;-77
2020/12/28 03:32:45;;;;;;;0.73;0.68;;;5.70;43.50;;;;;;4988401;28;20027;-77
2020/12/28 03:35:11;;;;;;;1.13;0.70;;;5.80;19.50;;;;;;4991695;28;20037;-78
2020/12/28 03:37:36;;;;;;;1.17;0.60;;;5.90;2.80;;;;;;4981279;28;20034;-78
2020/12/28 03:40:04;;;;;;;0.68;0.65;;;5.70;23.20;;;;;;5004886;28;20018;-79
2020/12/28 03:42:29;;;;;;;1.45;0.60;;;5.60;31.30;;;;;;5012061;28;20054;-77
2020/12/28 03:44:55;;;;;;;0.77;0.63;;;5.60;58.70;;;;;;5001562;28;20073;-77
2020/12/28 03:47:21;;;;;;;0.65;0.47;;;5.40;56.60;;;;;;5001357;28;20494;-78
2020/12/28 03:49:46;;;;;;;0.60;0.43;;;5.40;52.60;;;;;;5007305;28;20046;-77
2020/12/28 03:52:15;;;;;;;0.82;0.60;;;5.30;86.40;;;;;;4983332;28;20077;-77
2020/12/28 03:54:41;;;;;;;1.55;1.45;;;5.30;91.60;;;;;;5016769;28;20034;-77
2020/12/28 03:57:06;;;;;;;0.50;0.40;;;5.30;99.60;;;;;;5017056;28;20056;-78
2020/12/28 03:59:32;;;;;;;1.00;0.70;;;5.20;94.00;;;;;;5018165;28;20038;-77
2020/12/28 04:01:58;;;;;;;0.80;0.52;;;5.20;95.50;;;;;;5017028;28;20050;-77
2020/12/28 04:04:23;;;;;;;1.38;0.68;;;5.10;99.90;;;;;;5017353;28;20033;-77
2020/12/28 04:06:49;;;;;;;0.50;0.50;;;5.10;99.90;;;;;;5012021;28;20038;-76
2020/12/28 04:09:17;;;;;;;0.80;0.73;;;5.10;99.90;;;;;;5006179;28;20052;-79
2020/12/28 04:11:43;;;;;;;0.50;0.47;;;5.00;99.90;;;;;;5033952;22;20144;-74
2020/12/28 04:14:08;;;;;;;0.70;0.70;;;5.00;99.90;;;;;;5035958;28;20653;-74
2020/12/28 04:16:34;;;;;;;0.50;0.50;;;4.90;99.90;;;;;;5032836;28;20097;-75
2020/12/28 04:18:59;;;;;;;0.90;0.45;;;4.90;99.90;;;;;;5057194;28;20035;-75
2020/12/28 04:21:25;;;;;;;1.83;0.50;;;4.80;99.90;;;;;;5055299;28;20018;-74
2020/12/28 04:23:51;;;;;;;0.40;0.40;;;4.80;99.90;;;;;;5034779;28;20477;-73
2020/12/28 04:26:16;;;;;;;0.85;0.68;;;4.80;99.90;;;;;;5016269;28;20025;-74
2020/12/28 04:28:42;;;;;;;1.45;0.80;;;4.80;99.90;;;;;;5033837;28;20369;-75
2020/12/28 04:31:10;;;;;;;4.30;1.05;;;4.80;99.90;;;;;;5034025;28;20064;-75
2020/12/28 04:33:37;;;;;;;0.60;0.60;;;4.80;99.90;;;;;;5033867;28;20034;-74
2020/12/28 04:36:03;;;;;;;0.68;0.50;;;4.80;99.90;;;;;;5016314;28;20397;-74
2020/12/28 04:38:29;;;;;;;0.50;0.50;;;4.80;99.90;;;;;;5034243;28;20029;-74
2020/12/28 04:40:55;;;;;;;0.60;0.45;;;4.80;99.90;;;;;;5035837;28;20032;-73
2020/12/28 04:43:24;;;;;;;0.60;0.55;;;4.90;99.90;;;;;;5033953;28;20022;-75
2020/12/28 04:45:51;;;;;;;1.10;0.60;;;4.90;99.90;;;;;;5016410;28;20543;-77
2020/12/28 04:48:17;;;;;;;0.57;0.57;;;4.90;99.90;;;;;;5033556;28;20037;-74
2020/12/28 04:50:43;;;;;;;0.50;0.40;;;4.90;99.90;;;;;;5032960;28;20452;-74
2020/12/28 04:53:08;;;;;;;0.60;0.50;;;4.80;99.90;;;;;;5033002;28;20401;-75
2020/12/28 04:55:34;;;;;;;0.52;0.50;;;4.80;99.90;;;;;;5033747;28;20030;-75
2020/12/28 04:58:00;;;;;;;0.85;0.57;;;4.80;99.90;;;;;;5016167;28;20057;-74
2020/12/28 05:00:26;;;;;;;0.65;0.60;;;4.80;99.90;;;;;;5033470;28;20021;-74
2020/12/28 05:02:51;;;;;;;0.75;0.75;;;4.80;99.90;;;;;;5033663;28;20025;-74
2020/12/28 05:05:17;;;;;;;0.90;0.60;;;4.80;99.90;;;;;;5016155;28;20029;-75
2020/12/28 05:07:49;;;;;;;1.15;0.70;;;4.80;99.90;;;;;;5034024;28;20029;-75
2020/12/28 05:10:27;;;;;;;2.72;0.68;;;4.90;99.90;;;;;;5033214;28;20099;-75
2020/12/28 05:12:53;;;;;;;1.63;0.60;;;4.90;99.90;;;;;;5015500;28;20068;-75
2020/12/28 05:15:19;;;;;;;0.60;0.50;;;4.90;99.90;;;;;;5034524;28;20485;-74
2020/12/28 05:17:54;;;;;;;1.85;0.80;;;4.90;99.90;;;;;;5033993;28;20091;-75
2020/12/28 05:20:24;;;;;;;1.05;0.70;;;4.90;99.90;;;;;;5035179;28;20021;-74
2020/12/28 05:22:51;;;;;;;1.73;0.60;;;5.00;99.90;;;;;;5037350;28;20040;-74
2020/12/28 05:25:16;;;;;;;0.60;0.60;;;5.00;99.90;;;;;;5015145;28;20026;-74
2020/12/28 05:27:46;;;;;;;1.30;0.82;;;5.00;99.90;;;;;;5032361;28;20155;-74
2020/12/28 05:30:12;;;;;;;0.70;0.60;;;5.00;99.90;;;;;;5033400;28;20025;-76
2020/12/28 05:32:45;;;;;;;1.02;0.80;;;5.00;99.90;;;;;;5032595;28;20451;-75
2020/12/28 05:35:13;;;;;;;1.00;0.88;;;5.10;99.90;;;;;;5033086;28;20083;-75
2020/12/28 05:37:39;;;;;;;1.13;0.70;;;5.20;99.90;;;;;;5032728;28;20033;-75
2020/12/28 05:40:09;;;;;;;0.88;0.75;;;5.20;90.30;;;;;;5015504;28;20520;-74
2020/12/28 05:42:35;;;;;;;2.15;1.70;;;5.10;94.80;;;;;;5032801;28;20022;-75
2020/12/28 05:45:07;;;;;;;1.77;0.75;;;5.10;97.20;;;;;;5015448;28;20026;-74
2020/12/28 05:47:43;;;;;;;1.10;0.68;;;5.10;99.90;;;;;;5032543;28;20033;-74
2020/12/28 05:50:09;;;;;;;0.90;0.60;;;5.10;99.90;;;;;;5015100;28;20060;-74
2020/12/28 05:52:40;;;;;;;1.73;1.20;;;5.10;99.90;;;;;;5032214;28;20477;-76
2020/12/28 05:55:06;;;;;;;1.65;0.90;;;5.10;98.30;;;;;;5032478;28;20045;-74
2020/12/28 05:57:32;;;;;;;1.05;0.80;;;5.20;98.50;;;;;;5032505;28;20033;-75
2020/12/28 05:59:58;;;;;;;0.70;0.65;;;5.20;94.00;;;;;;5014641;28;20025;-74
2020/12/28 06:02:29;;;;;;;0.50;0.50;;;5.20;82.50;;;;;;5032328;28;20029;-77
2020/12/28 06:04:55;;;;;;;1.02;0.60;;;5.30;73.90;;;;;;5033336;28;20090;-73
2020/12/28 06:07:22;;;;;;;0.55;0.30;;;5.30;65.40;;;;;;5018707;28;20021;-74
2020/12/28 06:09:57;;;;;;;1.10;1.00;;;5.40;54.60;;;;;;5035921;28;20025;-74
2020/12/28 06:12:22;;;;;;;0.75;0.38;;;5.40;55.10;;;;;;5036631;28;20099;-74
2020/12/28 06:14:48;;;;;;;0.82;0.43;;;5.40;41.70;;;;;;5036447;28;20541;-76
2020/12/28 06:17:14;;;;;;;0.45;0.45;;;5.40;50.50;;;;;;5018524;28;20040;-73
2020/12/28 06:19:41;;;;;;;2.10;0.60;;;5.40;56.20;;;;;;5019277;28;20032;-75
2020/12/28 06:22:22;;;;;;;0.80;0.38;;;5.30;62.80;;;;;;5035569;28;20030;-75
2020/12/28 06:25:01;;;;;;;0.85;0.40;;;5.40;49.40;;;;;;5031190;28;20026;-74
2020/12/28 06:27:28;;;;;;;0.43;0.40;;;5.40;53.80;;;;;;5025206;28;20112;-74
2020/12/28 06:30:05;;;;;;;2.25;0.80;;;5.40;48.80;;;;;;5023184;28;20025;-74
2020/12/28 06:32:30;;;;;;;0.52;0.30;;;5.40;57.00;;;;;;5042897;28;20018;-75
2020/12/28 06:35:01;;;;;;;2.03;0.50;;;5.40;67.60;;;;;;5038553;28;20022;-74
2020/12/28 06:37:27;;;;;;;1.20;0.63;;;5.40;67.80;;;;;;5019030;28;20484;-75
2020/12/28 06:39:57;;;;;;;0.77;0.47;;;5.40;77.90;;;;;;5037606;28;20036;-74
2020/12/28 06:42:22;;;;;;;0.68;0.50;;;5.40;88.10;;;;;;5035783;28;20053;-75
2020/12/28 06:44:48;;;;;;;0.80;0.70;;;5.40;93.40;;;;;;5036668;28;20057;-74
2020/12/28 06:47:24;;;;;;;1.10;0.70;;;5.30;98.90;;;;;;5016500;28;20432;-74
2020/12/28 06:49:51;;;;;;;0.68;0.57;;;5.40;96.60;;;;;;5035623;28;20026;-74
2020/12/28 06:52:17;;;;;;;0.70;0.55;;;5.30;99.90;;;;;;5035616;28;20025;-75
2020/12/28 06:54:44;;;;;;;1.17;0.50;;;5.30;98.50;;;;;;5017977;28;20052;-75
2020/12/28 06:57:10;;;;;;;1.08;0.60;;;5.40;98.80;;;;;;5034908;28;20022;-75
2020/12/28 06:59:39;;;;;;;0.98;0.70;;;5.30;98.20;;;;;;5017374;28;20060;-74
2020/12/28 07:02:04;;;;;;;1.55;0.60;;;5.30;99.90;;;;;;5016679;28;20030;-75
2020/12/28 07:04:39;;;;;;;0.82;0.68;;;5.30;99.90;;;;;;5036020;28;20113;-75
2020/12/28 07:07:06;;;;;;;0.52;0.52;;;5.20;99.90;;;;;;5035029;28;20515;-74
2020/12/28 07:09:35;;;;;;;0.65;0.52;;;5.20;99.90;;;;;;5017593;28;20025;-74
2020/12/28 07:12:08;;;;;;;1.20;0.68;;;5.20;99.90;;;;;;5035001;28;20049;-74
2020/12/28 07:14:34;;;;;;;0.93;0.63;;;5.20;99.90;;;;;;5019296;28;20142;-75
2020/12/28 07:16:59;;;;;;;1.15;0.70;;;5.20;99.90;;;;;;5043676;28;20029;-73
2020/12/28 07:19:25;;;;;;;0.75;0.73;;;5.20;99.90;;;;;;5034842;28;20085;-74
2020/12/28 07:21:52;;;;;;;0.75;0.70;;;5.20;99.90;;;;;;5016800;28;20022;-75
2020/12/28 07:24:17;;;;;;;1.58;0.93;;;5.20;99.90;;;;;;5034837;28;20083;-75
2020/12/28 07:26:44;;;;;;;2.35;0.70;;;5.20;99.90;;;;;;5035359;28;20029;-74
2020/12/28 07:29:11;;;;;;;1.20;0.60;;;5.20;99.90;;;;;;5034349;28;20033;-75
2020/12/28 07:31:37;;;;;;;0.70;0.70;;;5.20;99.90;;;;;;5035173;28;20075;-75
2020/12/28 07:34:03;;;;;;;1.92;0.80;;;5.20;99.90;;;;;;5034964;28;20025;-75
2020/12/28 07:36:30;;;;;;;2.28;0.98;;;5.20;99.90;;;;;;5034863;28;20032;-73
2020/12/28 07:38:56;;;;;;;0.50;0.50;;;5.10;99.90;;;;;;5034817;28;20034;-75
2020/12/28 07:41:23;;;;;;;0.55;0.52;;;5.10;99.90;;;;;;5035023;28;20147;-74
2020/12/28 07:43:56;;;;;;;1.20;0.65;;;5.10;99.90;;;;;;5035174;28;20136;-75
2020/12/28 07:46:31;;;;;;;1.67;0.47;;;5.20;99.90;;;;;;5017239;28;20022;-74
2020/12/28 07:49:04;;;;;;;0.90;0.60;;;5.20;99.90;;;;;;5035078;28;20079;-75
2020/12/28 07:51:33;;;;;;;2.85;0.85;;;5.20;99.90;;;;;;5034952;28;20075;-73
2020/12/28 07:54:21;;;;;;;2.22;0.90;;;5.20;99.90;;;;;;5035272;28;20580;-74
2020/12/28 07:56:58;;;;;;;11.73;3.25;;;5.10;99.90;;;;;;5035019;28;20032;-75
2020/12/28 07:59:45;;;;;;;5.65;1.25;;;5.30;99.90;;;;;;5034587;28;20025;-75
2020/12/28 08:02:42;;;;;;;3.15;0.70;;;5.30;99.90;;;;;;5034944;28;20381;-74
2020/12/28 08:05:09;;;;;;;1.60;0.93;;;5.20;99.90;;;;;;5034839;28;20421;-74
2020/12/28 08:07:35;;;;;;;1.88;1.45;;;5.20;99.90;;;;;;5035041;28;20053;-75
2020/12/28 08:10:05;;;;;;;1.00;0.70;;;5.20;99.90;;;;;;5034814;28;20053;-75
2020/12/28 08:12:31;;;;;;;2.38;1.27;;;5.30;99.90;;;;;;5034361;28;20034;-74
2020/12/28 08:14:57;;;;;;;1.30;0.77;;;5.30;99.90;;;;;;5034306;28;20040;-75
2020/12/28 08:17:27;;;;;;;0.82;0.70;;;5.30;99.90;;;;;;5034197;28;20021;-75
2020/12/28 08:20:06;;;;;;;1.63;1.05;;;5.30;99.90;;;;;;5034377;28;20021;-75
2020/12/28 08:22:32;;;;;;;1.15;0.60;;;5.20;99.90;;;;;;5018168;28;20478;-74
2020/12/28 08:25:03;;;;;;;1.02;0.70;;;5.20;99.90;;;;;;5034333;28;20023;-75
2020/12/28 08:27:30;;;;;;;1.02;0.80;;;5.20;99.90;;;;;;5033980;28;20025;-74
2020/12/28 08:29:56;;;;;;;2.13;0.70;;;5.20;99.90;;;;;;5034498;28;20026;-74
2020/12/28 08:32:26;;;;;;;0.88;0.63;;;5.20;99.90;;;;;;5034100;28;20366;-75
2020/12/28 08:34:54;;;;;;;1.98;0.93;;;5.20;99.90;;;;;;5016375;28;20079;-74
2020/12/28 08:37:20;;;;;;;2.20;1.10;;;5.20;99.90;;;;;;5035415;28;20013;-74
2020/12/28 08:39:46;;;;;;;1.75;0.93;;;5.10;99.90;;;;;;5017313;28;20026;-75
2020/12/28 08:42:12;;;;;;;1.80;0.95;;;5.10;99.90;;;;;;5032626;28;20100;-75
2020/12/28 08:44:40;;;;;;;0.68;0.68;;;5.10;99.90;;;;;;5033801;28;20095;-73
2020/12/28 08:47:13;;;;;;;1.10;0.77;;;5.10;99.90;;;;;;5017457;28;20104;-75
2020/12/28 08:49:41;;;;;;;1.15;0.70;;;5.10;99.90;;;;;;5035801;28;20022;-73
2020/12/28 08:52:18;;;;;;;0.75;0.70;;;5.10;99.90;;;;;;5016658;28;20117;-74
2020/12/28 08:54:54;;;;;;;0.95;0.80;;;5.10;99.90;;;;;;5015935;28;20037;-74
2020/12/28 08:57:21;;;;;;;0.70;0.60;;;5.10;99.90;;;;;;5033904;28;20033;-75
2020/12/28 08:59:46;;;;;;;1.40;0.70;;;5.20;99.90;;;;;;5034326;28;20067;-74
2020/12/28 09:02:17;;;;;;;1.48;0.60;;;5.20;99.90;;;;;;5033438;28;20428;-75
2020/12/28 09:04:42;;;;;;;1.73;0.55;;;5.20;99.90;;;;;;5015108;28;20124;-74
2020/12/28 09:07:08;;;;;;;1.70;0.60;;;5.30;99.90;;;;;;5015796;28;20041;-74
2020/12/28 09:09:34;;;;;;;2.03;0.73;;;5.30;99.90;;;;;;5034145;28;20057;-75
2020/12/28 09:11:59;;;;;;;1.25;0.80;;;5.70;99.90;;;;;;5035131;28;20037;-75
2020/12/28 09:14:25;;;;;;;0.80;0.73;;;5.70;99.90;;;;;;5026540;28;20034;-73
2020/12/28 09:16:50;;;;;;;0.98;0.82;;;5.50;99.90;;;;;;5017433;28;20030;-74
2020/12/28 09:19:16;;;;;;;1.60;0.80;;;5.40;99.90;;;;;;5018343;28;20037;-75
2020/12/28 09:21:42;;;;;;;1.88;0.70;;;5.50;99.90;;;;;;5021238;28;20116;-74
2020/12/28 09:24:07;;;;;;;0.80;0.70;;;5.50;99.90;;;;;;5018631;28;20087;-75
2020/12/28 09:26:35;;;;;;;0.73;0.60;;;5.50;99.90;;;;;;5033859;28;20021;-74
2020/12/28 09:29:00;;;;;;;1.08;1.08;;;5.50;99.90;;;;;;5032815;28;20372;-75
2020/12/28 09:31:26;;;;;;;1.15;0.70;;;5.50;99.90;;;;;;5015390;28;20037;-74
2020/12/28 09:33:52;;;;;;;1.10;0.75;;;5.60;99.90;;;;;;5033700;28;20025;-74
2020/12/28 09:36:21;;;;;;;0.63;0.50;;;5.50;99.90;;;;;;5033590;28;20549;-75
2020/12/28 09:38:47;;;;;;;2.35;0.93;;;5.60;99.90;;;;;;5027318;28;20021;-75
2020/12/28 09:41:13;;;;;;;1.60;0.85;;;5.60;99.90;;;;;;5002821;28;20367;-75
2020/12/28 09:43:40;;;;;;;3.20;0.90;;;5.60;99.90;;;;;;5004308;28;20055;-75
2020/12/28 09:46:06;;;;;;;0.88;0.70;;;5.60;99.90;;;;;;5037285;28;20031;-73
2020/12/28 09:48:31;;;;;;;1.23;0.80;;;5.60;99.90;;;;;;5037045;28;20049;-75
2020/12/28 09:50:57;;;;;;;0.60;0.60;;;5.70;99.90;;;;;;5019341;28;20416;-74
2020/12/28 09:53:23;;;;;;;2.00;1.42;;;5.70;99.90;;;;;;5037545;28;20040;-75
2020/12/28 09:55:48;;;;;;;1.75;1.60;;;5.70;99.90;;;;;;5036730;28;20025;-74
2020/12/28 09:58:14;;;;;;;0.95;0.77;;;5.80;99.90;;;;;;5036540;28;20088;-73
2020/12/28 10:00:40;;;;;;;0.85;0.85;;;5.80;99.90;;;;;;5024135;28;20069;-73
2020/12/28 10:03:05;;;;;;;1.27;0.88;;;5.80;99.90;;;;;;5042848;28;20124;-75
2020/12/28 10:05:31;;;;;;;1.00;1.00;;;6.00;99.90;;;;;;5036821;28;20013;-76
2020/12/28 10:07:56;;;;;;;1.48;1.20;;;6.20;35.90;;;;;;5036781;28;20052;-75
2020/12/28 10:10:22;;;;;;;1.67;0.93;;;6.10;75.10;;;;;;5019709;28;20113;-74
2020/12/28 10:12:48;;;;;;;2.72;1.55;;;6.00;82.20;;;;;;5036728;28;20503;-72
2020/12/28 10:15:15;;;;;;;1.38;1.13;;;6.00;99.90;;;;;;5020061;28;20053;-72
2020/12/28 10:18:19;;;;;;;4.68;1.52;;;5.90;98.40;;;;;;5036897;28;20026;-72
2020/12/28 10:20:44;;;;;;;1.48;1.05;;;6.00;81.10;;;;;;5037757;28;20114;-71
2020/12/28 10:23:10;;;;;;;1.95;1.40;;;6.00;55.00;;;;;;5037670;28;20523;-73
2020/12/28 10:25:36;;;;;;;2.40;1.33;;;6.00;44.00;;;;;;5026508;28;20033;-72
2020/12/28 10:28:02;;;;;;;2.85;0.95;;;6.00;39.80;;;;;;5037192;28;20083;-72
2020/12/28 10:30:28;;;;;;;1.95;1.50;;;6.00;24.90;;;;;;5026713;28;20379;-72
2020/12/28 10:32:54;;;;;;;3.92;1.40;;;6.10;11.40;;;;;;5035066;28;20025;-73
2020/12/28 10:35:19;;;;;;;1.80;1.50;;;6.10;20.00;;;;;;5018724;28;20021;-74
2020/12/28 10:37:45;;;;;;;2.03;1.60;;;6.10;29.40;;;;;;5036461;28;20436;-73
2020/12/28 10:40:10;;;;;;;2.38;2.08;;;6.10;23.60;;;;;;5035861;28;20034;-73
2020/12/28 10:42:36;;;;;;;1.92;1.73;;;6.10;27.10;;;;;;5035876;28;20072;-72
2020/12/28 10:45:03;;;;;;;2.55;1.92;;;6.10;7.10;;;;;;5036402;28;20029;-73
2020/12/28 10:47:28;;;;;;;3.53;1.80;;;6.30;4.70;;;;;;5018286;28;20022;-72
2020/12/28 10:49:54;;;;;;;2.40;2.20;;;6.20;1.00;;;;;;5019175;28;20029;-72
2020/12/28 10:52:19;;;;;;;1.80;1.70;;;6.20;1.00;;;;;;5036085;28;20025;-72
2020/12/28 10:54:45;;;;;;;2.17;1.70;;;6.10;1.00;;;;;;5018550;28;20025;-73
2020/12/28 10:57:10;;;;;;;2.35;1.98;;;6.10;1.00;;;;;;5035696;28;20028;-73
2020/12/28 10:59:36;;;;;;;2.08;1.70;;;6.20;1.00;;;;;;5035692;28;20105;-72
2020/12/28 11:02:01;;;;;;;5.32;4.28;;;6.20;1.00;;;;;;5036026;28;20144;-73
2020/12/28 11:04:27;;;;;;;2.65;1.88;;;6.20;1.00;;;;;;5035716;28;20030;-73
2020/12/28 11:06:52;;;;;;;2.33;2.13;;;6.20;1.00;;;;;;5037178;28;20108;-73
2020/12/28 11:09:18;;;;;;;2.08;1.98;;;6.20;1.00;;;;;;5036218;28;20037;-72
2020/12/28 11:11:52;;;;;;;1.80;1.70;;;6.20;1.00;;;;;;5037742;28;20045;-72
2020/12/28 11:14:19;;;;;;;2.13;1.92;;;6.30;1.00;;;;;;5034117;28;20053;-72
2020/12/28 11:16:45;;;;;;;2.17;2.00;;;6.30;1.00;;;;;;5036713;28;20393;-72
2020/12/28 11:19:10;;;;;;;2.70;2.10;;;6.30;1.00;;;;;;5037334;28;20022;-72
2020/12/28 11:21:36;;;;;;;2.38;2.17;;;6.30;1.00;;;;;;5022379;28;20033;-72
2020/12/28 11:24:02;;;;;;;2.33;2.13;;;6.30;1.00;;;;;;5018933;28;20030;-72
2020/12/28 11:26:32;;;;;;;1.67;1.58;;;6.30;1.00;;;;;;5024221;28;20385;-72
2020/12/28 11:28:59;;;;;;;4.03;2.13;;;6.20;1.00;;;;;;5027377;28;20026;-72
2020/12/28 11:31:25;;;;;;;2.78;2.10;;;6.30;1.00;;;;;;5035655;28;20033;-72
2020/12/28 11:33:52;;;;;;;2.20;2.00;;;6.30;1.00;;;;;;5038277;28;20057;-72
2020/12/28 11:36:23;;;;;;;2.25;2.05;;;6.30;1.00;;;;;;5037635;28;20041;-73
2020/12/28 11:38:49;;;;;;;3.20;1.73;;;6.40;1.00;;;;;;5033402;28;20053;-73
2020/12/28 11:41:16;;;;;;;2.15;1.95;;;6.40;1.00;;;;;;5018962;28;20041;-73
2020/12/28 11:43:42;;;;;;;2.20;2.00;;;6.40;1.00;;;;;;5024707;28;20026;-73
2020/12/28 11:46:09;;;;;;;2.40;2.00;;;6.40;1.00;;;;;;5045834;28;20036;-73
2020/12/28 11:48:36;;;;;;;2.08;1.75;;;6.70;1.00;;;;;;5035809;28;20034;-72
2020/12/28 11:51:04;;;;;;;4.10;2.10;;;7.00;99.90;;;;;;5035361;28;20022;-74
2020/12/28 11:53:33;;;;;;;6.60;2.30;;;7.10;99.90;;;;;;5034312;28;20513;-73
2020/12/28 11:56:05;;;;;;;4.07;2.25;;;7.20;99.90;;;;;;5035142;28;20018;-73
2020/12/28 11:58:36;;;;;;;2.70;2.50;;;7.30;99.90;;;;;;5036100;28;20025;-73
2020/12/28 12:01:04;;;;;;;3.67;2.90;;;7.30;99.90;;;;;;5016602;28;20515;-73
2020/12/28 12:03:29;;;;;;;2.40;2.20;;;7.30;99.90;;;;;;5041039;28;20052;-72
2020/12/28 12:05:56;;;;;;;3.33;2.97;;;7.30;99.90;;;;;;5055643;28;20049;-71
2020/12/28 12:08:22;;;;;;;3.72;3.22;;;7.00;99.90;;;;;;5039785;28;20077;-72
2020/12/28 12:10:48;;;;;;;4.35;3.10;;;7.00;99.90;;;;;;5056504;28;20033;-72
2020/12/28 12:13:14;;;;;;;3.00;2.75;;;6.90;1.00;;;;;;5056583;28;20034;-72
2020/12/28 12:15:48;;;;;;;3.35;2.42;;;7.10;99.90;;;;;;5024872;28;20025;-72
2020/12/28 12:18:14;;;;;;;3.80;3.33;;;7.00;99.90;;;;;;5037280;28;20029;-73
2020/12/28 12:20:41;;;;;;;3.42;3.13;;;6.80;1.00;;;;;;5018265;28;20433;-72
2020/12/28 12:23:07;;;;;;;3.72;3.17;;;6.90;1.00;;;;;;5039077;28;20413;-71
2020/12/28 12:25:33;;;;;;;4.57;2.90;;;6.90;1.00;;;;;;5036465;28;20028;-71
2020/12/28 12:27:59;;;;;;;3.60;2.90;;;7.00;99.90;;;;;;5036859;28;20104;-72
2020/12/28 12:30:25;;;;;;;3.78;2.50;;;7.00;99.90;;;;;;5018858;28;20061;-71
2020/12/28 12:32:51;;;;;;;4.57;3.50;;;6.90;1.00;;;;;;5035081;28;20025;-71
2020/12/28 12:35:17;;;;;;;4.45;3.35;;;6.90;1.00;;;;;;5034293;28;20022;-72
2020/12/28 12:37:42;;;;;;;3.40;3.00;;;6.70;1.00;;;;;;5016761;28;20040;-70
2020/12/28 12:40:08;;;;;;;4.25;3.47;;;6.60;1.00;;;;;;5034646;28;20025;-71
2020/12/28 12:42:34;;;;;;;3.15;2.85;;;6.60;1.00;;;;;;5034258;28;20025;-72
2020/12/28 12:44:59;;;;;;;2.55;2.25;;;6.50;99.90;;;;;;5033802;28;20040;-72
2020/12/28 12:47:25;;;;;;;2.58;1.67;;;6.50;99.90;;;;;;5033812;28;20029;-71
2020/12/28 12:49:50;;;;;;;3.65;1.73;;;6.50;99.90;;;;;;5034186;28;20056;-72
2020/12/28 12:52:18;;;;;;;2.13;1.65;;;6.50;99.90;;;;;;5035820;28;20056;-71
2020/12/28 12:54:44;;;;;;;4.07;1.95;;;6.40;1.00;;;;;;5050460;28;20031;-71
2020/12/28 12:57:11;;;;;;;2.13;1.60;;;6.40;1.00;;;;;;5036673;28;20044;-72